EPLL/LCJ METAR and TAF weather

Enter ICAO airport designator
Station Type Date Time Source
EPLL METAR 2018/10/22 17:00 UTC NOAA

EPLL 221700Z 27015KT 9999 -RA FEW006 BKN019 10/06 Q1023


Station Type Date Time Source
EPLL Decoded METAR 2018/10/22 17:00 UTC NOAA

Station name not available
Oct 22, 2018 - 01:00 PM EDT / 2018.10.22 1700 UTC
Wind: from the W (270 degrees) at 17 MPH (15 KT):0
Visibility: greater than 7 mile(s):0
Sky conditions: mostly cloudy
Weather: light rain
Temperature: 50 F (10 C)
Dew Point: 42 F (6 C)
Relative Humidity: 76%
Pressure (altimeter): 30.21 in. Hg (1023 hPa)
ob: EPLL 221700Z 27015KT 9999 -RA FEW006 BKN019 10/06 Q1023
cycle: 17

Station Type Date Time Source
EPLL TAF 2018/10/22 12:00 UTC NOAA

TAF EPLL 221130Z 2212/2312 24010KT CAVOK
BECMG 2214/2216 30010KT BKN012
TEMPO 2216/2220 3000 RA BR BKN004
BECMG 2308/2310 24014KT
TEMPO 2309/2312 24018G32KT 3000 RA BKN006 BKN010


Example: see airport list